Главная страница
METAR-TAF:

METAR-TAF

Аэропорты :

Ringkøbing-Skjern, Дания

широта: 56-00N, долгота: 008-21E, высота над уровнем моря: 5 м

Текущие метеонаблюдения

Эта сводка был подготовлена 14 минут назад, в 10:50 UTC
Ветер 9 Узел от юго-восточный
Температура 10°C
Влажность 93%
Давление 1028 hPa
Видимость 10 км и более
Отдельные облака на высоте 18000 фута

METAR: EKVJ 151050Z 14009KT 9999 SCT180 10/09 Q1028

Время: 12:04 (11:04 UTC)

Прогноз

Эта сводка был подготовлена 2 часа и 9 минут назад, в 08:55 UTC
Прогноз действительный с 15-го 09 UTC до 15-го 16 UTC
Ветер 8 Узел от юго-юго-восточный
Видимость: 8000 м
Отдельные облака на высоте 3000 фута
временами
С 15-го 09 UTC до 15-го 16 UTC
Видимость: 4000 м
Рассеянная облачность на высоте 800 фута
дымка

TAF: EKVJ 150855Z 1509/1516 15008KT 8000 SCT030 TEMPO 1509/1516 4000 BR BKN008

Метеонаблюдения и прогнозы для более 4000 аэропортов (сводки METAR и TAF).

Имеющиеся станции представлены на карте желтыми и красными точками.

Чтобы увидеть название станции, наведите на нее мышь.

Затем щелкните, чтобы увидеть метеонаблюдения и метеопрогнозы.

Управление картой: чтобы увеличить масштаб, щелкните зеленые кнопки с черным крестиком; чтобы уменьшить масштаб, щелкните зеленую кнопку с тире; для просмотра соседних карт щелкайте зеленые стрелки.


METAR-TAF: